• Join FlightAware (Why Join?)
  • Login
  • US Flag 
05:03AM EDT


 

Airport Tracker/Info


-or-


 

Live Flight TrackerFlight Track Log ✈ N900WP ✈ 20-Aug-2013 ✈ KTYS - KPDK

Flight Track Log - Related Links

Times and Time Zones

All times are in EDT time to prevent confusion due to time zone crossing. See the N900WP flight status page for this flight to view local times or setup timezone preferences in your user account.

Time Position Orientation Groundspeed Altitude Reporting Facility
EDT Latitude Longitude Course Direction KTS MPH feet Rate Location/Type
07:38PM 35.7433 -84.0003 132° Southeast 152 175 4,200  Level Atlanta Center
07:39PM 35.7119 -83.9569 132° Southeast 162 186 6,100 1,860 Climbing Atlanta Center
07:40PM 35.6722 -83.9058 134° Southeast 174 200 8,000 1,920 Climbing Atlanta Center
07:41PM 35.6367 -83.8572 132° Southeast 179 206 10,000 1,980 Climbing Atlanta Center
07:42PM 35.5886 -83.8294 155° Southeast 179 206 12,000 1,860 Climbing Atlanta Center
07:43PM 35.5367 -83.8167 169° South 186 214 13,800 1,560 Climbing Atlanta Center
07:44PM 35.4803 -83.8042 170° South 203 234 15,200 1,080 Climbing Atlanta Center
07:45PM 35.4175 -83.7917 171° South 214 246 16,000 360 Climbing Atlanta Center
07:46PM 35.3467 -83.7792 172° South 239 275 16,000  Level Atlanta Center
07:47PM 35.2714 -83.7639 171° South 258 297 16,000  Level Atlanta Center
07:48PM 35.1922 -83.7464 170° South 279 321 16,000  Level Atlanta Center
07:49PM 35.1150 -83.7314 171° South 284 327 16,000  Level Atlanta Center
07:50PM 35.0378 -83.7142 170° South 284 327 16,000  Level Atlanta Center
07:51PM 34.9625 -83.7269 188° South 284 327 16,000 -240 Level Atlanta Center
07:52PM 34.8981 -83.7550 200° South 274 315 15,600 -720 Descending Atlanta Center
07:53PM 34.8250 -83.8008 207° Southwest 287 330 14,600 -1,020 Descending Atlanta Center
07:54PM 34.7500 -83.8392 203° Southwest 295 339 13,600 -1,200 Descending Atlanta Center
07:55PM 34.6644 -83.8922 207° Southwest 303 349 12,200 -1,200 Descending Atlanta Center
07:56PM 34.5978 -83.9178 198° South 298 343 11,300 -1,020 Descending Atlanta Center
07:57PM 34.5225 -83.9631 206° Southwest 293 337 10,200 -1,080 Descending Atlanta Center
07:58PM 34.4497 -84.0011 203° Southwest 287 330 9,200 -1,020 Descending Atlanta Center
07:59PM 34.3786 -84.0389 204° Southwest 287 330 8,200 -900 Descending Atlanta Center
08:00PM 34.3078 -84.0764 204° Southwest 281 323 7,500 -900 Descending Atlanta Center
08:01PM 34.2367 -84.1117 202° Southwest 276 318 6,500 -1,020 Descending Atlanta Center
08:02PM 34.1678 -84.1042 175° South 260 299 5,500 -1,080 Descending Atlanta Center
08:03PM 34.1167 -84.1000 176° South 193 222 4,600 -840 Descending Atlanta TRACON
08:04PM 34.0667 -84.1000 180° South 183 211 4,000 -300 Descending Atlanta TRACON
08:05PM 34.0333 -84.1167 203° Southwest 199 229 4,000 -120 Level Atlanta TRACON
08:06PM 34.0333 -84.1833 270° West 226 260 3,800 -540 Descending Atlanta TRACON
08:07PM 34.0000 -84.2333 231° Southwest 184 212 3,000 -480 Descending Atlanta TRACON
08:08PM 33.9667 -84.2500 203° Southwest 172 198 2,900 -540 Descending Atlanta TRACON
08:09PM 33.9333 -84.2833 220° Southwest 142 163 2,000 -840 Descending Atlanta TRACON
08:11PM 33.8756 -84.3020 209° Southwest  Level Estimated
08:18PM 33.8756 -84.3020 209° Southwest  Level Estimated
08:19PM 33.8756 -84.3020 209° Southwest  Level Estimated